Time,TemperatureF,DewpointF,PressureIn,WindDirection,WindDirectionDegrees,WindSpeedMPH,WindSpeedGustMPH,Humidity,HourlyPrecipIn,Conditions,Clouds,dailyrainin,SoftwareType,DateUTC
2013-02-01 00:04:00,50.4,22.3,30.31,SSE,160,5.0,12.0,33,0.00,,,0.00,Wunderground v.1.15,2013-02-01 06:04:00,
2013-02-01 00:10:00,50.5,22.4,30.31,South,176,5.0,12.0,33,0.00,,,0.00,Wunderground v.1.15,2013-02-01 06:10:00,
2013-02-01 00:16:00,50.7,21.9,30.30,SSE,165,4.0,12.0,32,0.00,,,0.00,Wunderground v.1.15,2013-02-01 06:16:00,
2013-02-01 00:22:00,50.7,21.9,30.31,South,186,4.0,12.0,32,0.00,,,0.00,Wunderground v.1.15,2013-02-01 06:22:00,
2013-02-01 00:28:00,50.3,23.0,30.31,SSE,162,5.0,12.0,34,0.00,,,0.00,Wunderground v.1.15,2013-02-01 06:28:00,
2013-02-01 00:34:00,50.3,23.0,30.30,SE,132,7.0,8.0,34,0.00,,,0.00,Wunderground v.1.15,2013-02-01 06:34:00,
2013-02-01 00:40:00,50.0,24.1,30.31,SE,141,7.0,7.0,36,0.00,,,0.00,Wunderground v.1.15,2013-02-01 06:40:00,
2013-02-01 00:46:00,49.5,24.3,30.31,SSE,153,6.0,12.0,37,0.00,,,0.00,Wunderground v.1.15,2013-02-01 06:46:00,
2013-02-01 00:52:00,49.0,25.1,30.30,SSE,165,5.0,12.0,39,0.00,,,0.00,Wunderground v.1.15,2013-02-01 06:52:00,
2013-02-01 00:58:00,48.8,26.1,30.30,South,184,4.0,12.0,41,0.00,,,0.00,Wunderground v.1.15,2013-02-01 06:58:00,
2013-02-01 01:04:00,48.5,25.8,30.30,South,178,3.0,12.0,41,0.00,,,0.00,Wunderground v.1.15,2013-02-01 07:04:00,
2013-02-01 01:10:00,48.5,26.4,30.30,SSE,153,4.0,12.0,42,0.00,,,0.00,Wunderground v.1.15,2013-02-01 07:10:00,
2013-02-01 01:16:00,48.7,27.2,30.31,SSE,167,5.0,12.0,43,0.00,,,0.00,Wunderground v.1.15,2013-02-01 07:16:00,
2013-02-01 01:22:00,48.6,27.6,30.31,SSE,167,5.0,12.0,44,0.00,,,0.00,Wunderground v.1.15,2013-02-01 07:22:00,
2013-02-01 01:28:00,48.2,28.4,30.31,South,173,4.0,12.0,46,0.00,,,0.00,Wunderground v.1.15,2013-02-01 07:28:00,
2013-02-01 01:34:00,48.0,28.7,30.31,SE,142,3.0,12.0,47,0.00,,,0.00,Wunderground v.1.15,2013-02-01 07:34:00,
2013-02-01 01:40:00,48.0,29.2,30.31,SSE,158,3.0,3.0,48,0.00,,,0.00,Wunderground v.1.15,2013-02-01 07:40:00,
2013-02-01 01:46:00,48.4,29.6,30.31,SSE,160,3.0,12.0,48,0.00,,,0.00,Wunderground v.1.15,2013-02-01 07:46:00,
2013-02-01 01:52:00,48.7,30.4,30.31,SSE,150,3.0,12.0,49,0.00,,,0.00,Wunderground v.1.15,2013-02-01 07:52:00,
2013-02-01 01:58:00,49.1,31.2,30.31,SSE,150,4.0,12.0,50,0.00,,,0.00,Wunderground v.1.15,2013-02-01 07:58:00,
2013-02-01 02:04:00,49.2,31.8,30.31,SSE,162,5.0,12.0,51,0.00,,,0.00,Wunderground v.1.15,2013-02-01 08:04:00,
2013-02-01 02:10:00,49.2,31.8,30.31,South,170,4.0,12.0,51,0.00,,,0.00,Wunderground v.1.15,2013-02-01 08:10:00,
2013-02-01 02:16:00,48.9,32.5,30.31,SSE,148,3.0,12.0,53,0.00,,,0.00,Wunderground v.1.15,2013-02-01 08:16:00,
2013-02-01 02:22:00,48.9,33.0,30.30,SSE,159,3.0,12.0,54,0.00,,,0.00,Wunderground v.1.15,2013-02-01 08:22:00,
2013-02-01 02:28:00,48.9,33.0,30.31,South,177,4.0,12.0,54,0.00,,,0.00,Wunderground v.1.15,2013-02-01 08:28:00,
2013-02-01 02:34:00,48.7,33.2,30.30,SSE,152,4.0,12.0,55,0.00,,,0.00,Wunderground v.1.15,2013-02-01 08:34:00,
2013-02-01 02:40:00,48.5,33.5,30.31,SSE,158,4.0,12.0,56,0.00,,,0.00,Wunderground v.1.15,2013-02-01 08:40:00,
2013-02-01 02:46:00,48.4,33.4,30.31,South,169,5.0,12.0,56,0.00,,,0.00,Wunderground v.1.15,2013-02-01 08:46:00,
2013-02-01 02:52:00,48.4,33.9,30.31,South,172,5.0,12.0,57,0.00,,,0.00,Wunderground v.1.15,2013-02-01 08:52:00,
2013-02-01 02:58:00,48.3,34.2,30.31,SSE,160,5.0,12.0,58,0.00,,,0.00,Wunderground v.1.15,2013-02-01 08:58:00,
2013-02-01 03:04:00,48.3,34.6,30.31,SSE,159,5.0,12.0,59,0.00,,,0.00,Wunderground v.1.15,2013-02-01 09:04:00,
2013-02-01 03:10:00,48.4,34.7,30.32,SSE,162,5.0,12.0,59,0.00,,,0.00,Wunderground v.1.15,2013-02-01 09:10:00,
2013-02-01 03:16:00,48.3,35.0,30.31,SSW,200,4.0,12.0,60,0.00,,,0.00,Wunderground v.1.15,2013-02-01 09:16:00,
2013-02-01 03:22:00,48.0,34.8,30.31,SSE,155,4.0,12.0,60,0.00,,,0.00,Wunderground v.1.15,2013-02-01 09:22:00,
2013-02-01 03:28:00,48.4,35.1,30.31,SSE,165,5.0,12.0,60,0.00,,,0.00,Wunderground v.1.15,2013-02-01 09:28:00,
2013-02-01 03:34:00,48.5,35.2,30.31,South,169,6.0,12.0,60,0.00,,,0.00,Wunderground v.1.15,2013-02-01 09:34:00,
2013-02-01 03:40:00,48.5,35.2,30.31,South,173,5.0,12.0,60,0.00,,,0.00,Wunderground v.1.15,2013-02-01 09:40:00,
2013-02-01 03:46:00,48.6,35.3,30.31,South,184,6.0,12.0,60,0.00,,,0.00,Wunderground v.1.15,2013-02-01 09:46:00,
2013-02-01 03:52:00,48.5,35.2,30.31,SSE,162,5.0,12.0,60,0.00,,,0.00,Wunderground v.1.15,2013-02-01 09:52:00,
2013-02-01 03:58:00,48.3,35.0,30.31,SSE,148,5.0,12.0,60,0.00,,,0.00,Wunderground v.1.15,2013-02-01 09:58:00,
2013-02-01 04:04:00,48.3,35.0,30.32,SSE,162,4.0,12.0,60,0.00,,,0.00,Wunderground v.1.15,2013-02-01 10:04:00,
2013-02-01 04:10:00,48.3,35.0,30.32,SSW,194,5.0,5.0,60,0.00,,,0.00,Wunderground v.1.15,2013-02-01 10:10:00,
2013-02-01 04:16:00,48.3,35.0,30.32,SSE,166,4.0,12.0,60,0.00,,,0.00,Wunderground v.1.15,2013-02-01 10:16:00,
2013-02-01 04:22:00,48.2,35.0,30.32,SSE,163,4.0,12.0,60,0.00,,,0.00,Wunderground v.1.15,2013-02-01 10:22:00,
2013-02-01 04:28:00,48.0,35.2,30.32,SSE,148,4.0,12.0,61,0.00,,,0.00,Wunderground v.1.15,2013-02-01 10:28:00,
2013-02-01 04:34:00,47.9,35.1,30.32,SE,142,3.0,12.0,61,0.00,,,0.00,Wunderground v.1.15,2013-02-01 10:34:00,
2013-02-01 04:40:00,47.6,34.8,30.31,SSE,160,3.0,12.0,61,0.00,,,0.00,Wunderground v.1.15,2013-02-01 10:40:00,
2013-02-01 04:46:00,47.6,34.8,30.31,SSE,165,3.0,12.0,61,0.00,,,0.00,Wunderground v.1.15,2013-02-01 10:46:00,
2013-02-01 04:52:00,47.6,35.2,30.32,South,186,4.0,12.0,62,0.00,,,0.00,Wunderground v.1.15,2013-02-01 10:52:00,
2013-02-01 04:58:00,47.5,35.1,30.32,SSW,208,3.0,12.0,62,0.00,,,0.00,Wunderground v.1.15,2013-02-01 10:58:00,
2013-02-01 05:04:00,47.5,35.5,30.31,South,174,4.0,12.0,63,0.00,,,0.00,Wunderground v.1.15,2013-02-01 11:04:00,
2013-02-01 05:10:00,47.6,35.6,30.31,SE,136,4.0,12.0,63,0.00,,,0.00,Wunderground v.1.15,2013-02-01 11:10:00,
2013-02-01 05:16:00,47.7,35.7,30.31,SSE,160,4.0,12.0,63,0.00,,,0.00,Wunderground v.1.15,2013-02-01 11:16:00,
2013-02-01 05:22:00,47.7,35.7,30.31,SE,132,4.0,12.0,63,0.00,,,0.00,Wunderground v.1.15,2013-02-01 11:22:00,
2013-02-01 05:28:00,47.7,36.1,30.31,SSE,153,4.0,12.0,64,0.00,,,0.00,Wunderground v.1.15,2013-02-01 11:28:00,
2013-02-01 05:34:00,47.7,36.1,30.31,SSE,165,4.0,12.0,64,0.00,,,0.00,Wunderground v.1.15,2013-02-01 11:34:00,
2013-02-01 05:40:00,47.7,36.5,30.31,SSE,159,4.0,12.0,65,0.00,,,0.00,Wunderground v.1.15,2013-02-01 11:40:00,
2013-02-01 05:46:00,47.7,36.5,30.31,SSE,156,4.0,12.0,65,0.00,,,0.00,Wunderground v.1.15,2013-02-01 11:46:00,
2013-02-01 05:52:00,47.5,36.3,30.31,SSE,158,4.0,12.0,65,0.00,,,0.00,Wunderground v.1.15,2013-02-01 11:52:00,
2013-02-01 05:58:00,47.3,36.5,30.31,SE,142,3.0,12.0,66,0.00,,,0.00,Wunderground v.1.15,2013-02-01 11:58:00,
2013-02-01 06:04:00,47.4,36.6,30.32,SSW,203,4.0,5.0,66,0.00,,,0.00,Wunderground v.1.15,2013-02-01 12:04:00,
2013-02-01 06:10:00,47.6,36.8,30.32,SSE,162,4.0,4.0,66,0.00,,,0.00,Wunderground v.1.15,2013-02-01 12:10:00,
2013-02-01 06:16:00,47.7,36.9,30.32,SSE,148,3.0,5.0,66,0.00,,,0.00,Wunderground v.1.15,2013-02-01 12:16:00,
2013-02-01 06:22:00,47.1,36.3,30.33,NNW,348,2.0,4.0,66,0.00,,,0.00,Wunderground v.1.15,2013-02-01 12:22:00,
2013-02-01 06:28:00,45.7,36.5,30.33,NNW,335,4.0,6.0,70,0.00,,,0.00,Wunderground v.1.15,2013-02-01 12:28:00,
2013-02-01 06:34:00,44.4,32.6,30.34,NNW,335,5.0,8.0,63,0.00,,,0.00,Wunderground v.1.15,2013-02-01 12:34:00,
2013-02-01 06:40:00,42.5,29.6,30.34,NNW,346,6.0,6.0,60,0.00,,,0.00,Wunderground v.1.15,2013-02-01 12:40:00,
2013-02-01 06:46:00,41.3,28.9,30.34,North,352,5.0,6.0,61,0.00,,,0.00,Wunderground v.1.15,2013-02-01 12:46:00,
2013-02-01 06:52:00,40.8,28.4,30.34,NNE,15,5.0,5.0,61,0.00,,,0.00,Wunderground v.1.15,2013-02-01 12:52:00,
2013-02-01 06:58:00,41.3,27.6,30.34,NNE,17,5.0,6.0,58,0.00,,,0.00,Wunderground v.1.15,2013-02-01 12:58:00,
2013-02-01 07:04:00,41.7,28.0,30.35,North,360,4.0,5.0,58,0.00,,,0.00,Wunderground v.1.15,2013-02-01 13:04:00,
2013-02-01 07:10:00,42.2,28.0,30.35,North,359,4.0,4.0,57,0.00,,,0.00,Wunderground v.1.15,2013-02-01 13:10:00,
2013-02-01 07:16:00,43.5,29.3,30.35,NNE,18,3.0,5.0,57,0.00,,,0.00,Wunderground v.1.15,2013-02-01 13:16:00,
2013-02-01 07:22:00,44.7,29.5,30.35,North,8,3.0,5.0,55,0.00,,,0.00,Wunderground v.1.15,2013-02-01 13:22:00,
2013-02-01 07:28:00,44.8,29.2,30.36,North,6,4.0,5.0,54,0.00,,,0.00,Wunderground v.1.15,2013-02-01 13:28:00,
2013-02-01 07:34:00,44.1,28.5,30.36,North,7,4.0,5.0,54,0.00,,,0.00,Wunderground v.1.15,2013-02-01 13:34:00,
2013-02-01 07:40:00,44.7,29.1,30.35,NNE,22,4.0,4.0,54,0.00,,,0.00,Wunderground v.1.15,2013-02-01 13:40:00,
2013-02-01 07:46:00,45.8,30.1,30.35,NNE,15,3.0,5.0,54,0.00,,,0.00,Wunderground v.1.15,2013-02-01 13:46:00,
2013-02-01 07:52:00,46.5,30.3,30.36,North,1,3.0,4.0,53,0.00,,,0.00,Wunderground v.1.15,2013-02-01 13:52:00,
2013-02-01 07:58:00,46.7,30.0,30.36,North,5,3.0,5.0,52,0.00,,,0.00,Wunderground v.1.15,2013-02-01 13:58:00,
2013-02-01 08:04:00,47.1,29.9,30.36,NNE,24,3.0,5.0,51,0.00,,,0.00,Wunderground v.1.15,2013-02-01 14:04:00,
2013-02-01 08:10:00,47.7,30.4,30.36,NNE,16,2.0,5.0,51,0.00,,,0.00,Wunderground v.1.15,2013-02-01 14:10:00,
2013-02-01 08:16:00,48.3,30.5,30.36,NNW,348,2.0,5.0,50,0.00,,,0.00,Wunderground v.1.15,2013-02-01 14:16:00,
2013-02-01 08:22:00,48.7,31.4,30.36,North,360,2.0,5.0,51,0.00,,,0.00,Wunderground v.1.15,2013-02-01 14:22:00,
2013-02-01 08:28:00,49.0,32.1,30.36,North,4,2.0,5.0,52,0.00,,,0.00,Wunderground v.1.15,2013-02-01 14:28:00,
2013-02-01 08:34:00,49.5,33.5,30.36,North,351,2.0,5.0,54,0.00,,,0.00,Wunderground v.1.15,2013-02-01 14:34:00,
2013-02-01 08:40:00,50.3,35.2,30.36,NNE,33,0.0,5.0,56,0.00,,,0.00,Wunderground v.1.15,2013-02-01 14:40:00,
2013-02-01 08:46:00,51.0,36.7,30.36,NW,314,0.0,5.0,58,0.00,,,0.00,Wunderground v.1.15,2013-02-01 14:46:00,
2013-02-01 08:52:00,51.4,36.2,30.36,North,356,0.0,5.0,56,0.00,,,0.00,Wunderground v.1.15,2013-02-01 14:52:00,
2013-02-01 08:58:00,51.7,38.3,30.36,NNW,347,1.0,5.0,60,0.00,,,0.00,Wunderground v.1.15,2013-02-01 14:58:00,
2013-02-01 09:04:00,52.4,38.0,30.36,WNW,297,1.0,5.0,58,0.00,,,0.00,Wunderground v.1.15,2013-02-01 15:04:00,
2013-02-01 09:10:00,53.1,40.0,30.36,SSW,207,1.0,5.0,61,0.00,,,0.00,Wunderground v.1.15,2013-02-01 15:10:00,
2013-02-01 09:16:00,53.7,41.8,30.36,SSW,208,3.0,5.0,64,0.00,,,0.00,Wunderground v.1.15,2013-02-01 15:16:00,
2013-02-01 09:22:00,54.5,42.2,30.36,SSW,210,4.0,7.0,63,0.00,,,0.00,Wunderground v.1.15,2013-02-01 15:22:00,
2013-02-01 09:30:00,54.7,42.3,30.36,SW,222,5.0,6.0,63,0.00,,,0.00,Wunderground v.1.15,2013-02-01 15:30:00,
2013-02-01 09:36:00,54.8,42.4,30.36,SSE,158,5.0,9.0,63,0.00,,,0.00,Wunderground v.1.15,2013-02-01 15:36:00,
2013-02-01 09:42:00,55.4,43.0,30.35,South,189,6.0,7.0,63,0.00,,,0.00,Wunderground v.1.15,2013-02-01 15:42:00,
2013-02-01 09:48:00,55.9,42.6,30.36,SW,217,5.0,7.0,61,0.00,,,0.00,Wunderground v.1.15,2013-02-01 15:48:00,
2013-02-01 09:54:00,56.1,42.8,30.36,SSE,162,5.0,5.0,61,0.00,,,0.00,Wunderground v.1.15,2013-02-01 15:54:00,
2013-02-01 10:00:00,56.1,42.4,30.36,SE,146,5.0,8.0,60,0.00,,,0.00,Wunderground v.1.15,2013-02-01 16:00:00,
2013-02-01 10:06:00,56.1,42.8,30.35,SE,135,6.0,8.0,61,0.00,,,0.00,Wunderground v.1.15,2013-02-01 16:06:00,
2013-02-01 10:12:00,56.9,43.2,30.35,SE,136,6.0,6.0,60,0.00,,,0.00,Wunderground v.1.15,2013-02-01 16:12:00,
2013-02-01 10:18:00,57.5,43.7,30.35,ESE,122,5.0,8.0,60,0.00,,,0.00,Wunderground v.1.15,2013-02-01 16:18:00,
2013-02-01 10:24:00,57.7,43.9,30.35,SSE,159,6.0,10.0,60,0.00,,,0.00,Wunderground v.1.15,2013-02-01 16:24:00,
2013-02-01 10:30:00,58.4,44.6,30.35,South,179,7.0,7.0,60,0.00,,,0.00,Wunderground v.1.15,2013-02-01 16:30:00,
2013-02-01 10:36:00,59.0,45.1,30.35,South,177,7.0,9.0,60,0.00,,,0.00,Wunderground v.1.15,2013-02-01 16:36:00,
2013-02-01 10:42:00,59.3,44.1,30.35,SSE,157,7.0,11.0,57,0.00,,,0.00,Wunderground v.1.15,2013-02-01 16:42:00,
2013-02-01 10:48:00,59.5,44.2,30.34,SSE,167,8.0,11.0,57,0.00,,,0.00,Wunderground v.1.15,2013-02-01 16:48:00,
2013-02-01 10:54:00,59.7,44.4,30.35,SE,143,8.0,8.0,57,0.00,,,0.00,Wunderground v.1.15,2013-02-01 16:54:00,
2013-02-01 11:00:00,59.9,44.2,30.35,SW,215,8.0,12.0,56,0.00,,,0.00,Wunderground v.1.15,2013-02-01 17:00:00,
2013-02-01 11:06:00,60.3,43.6,30.35,SSW,195,9.0,12.0,54,0.00,,,0.00,Wunderground v.1.15,2013-02-01 17:06:00,
2013-02-01 11:12:00,60.9,43.6,30.34,SSW,201,9.0,9.0,53,0.00,,,0.00,Wunderground v.1.15,2013-02-01 17:12:00,
2013-02-01 11:18:00,61.4,44.1,30.34,SW,226,8.0,10.0,53,0.00,,,0.00,Wunderground v.1.15,2013-02-01 17:18:00,
2013-02-01 11:24:00,61.1,43.3,30.34,SSE,165,9.0,12.0,52,0.00,,,0.00,Wunderground v.1.15,2013-02-01 17:24:00,
2013-02-01 11:30:00,60.9,42.6,30.34,SSE,162,10.0,10.0,51,0.00,,,0.00,Wunderground v.1.15,2013-02-01 17:30:00,
2013-02-01 11:36:00,61.4,43.1,30.33,SW,224,9.0,10.0,51,0.00,,,0.00,Wunderground v.1.15,2013-02-01 17:36:00,
2013-02-01 11:42:00,62.0,43.1,30.33,SW,229,8.0,8.0,50,0.00,,,0.00,Wunderground v.1.15,2013-02-01 17:42:00,
2013-02-01 11:48:00,62.3,42.9,30.33,ESE,108,9.0,13.0,49,0.00,,,0.00,Wunderground v.1.15,2013-02-01 17:48:00,
2013-02-01 11:54:00,61.7,42.9,30.32,South,190,10.0,17.0,50,0.00,,,0.00,Wunderground v.1.15,2013-02-01 17:54:00,
2013-02-01 12:00:00,61.7,42.9,30.32,SE,141,10.0,12.0,50,0.00,,,0.00,Wunderground v.1.15,2013-02-01 18:00:00,
2013-02-01 12:06:00,62.1,42.2,30.32,SE,136,9.0,12.0,48,0.00,,,0.00,Wunderground v.1.15,2013-02-01 18:06:00,
2013-02-01 12:12:00,62.6,44.2,30.31,South,176,9.0,10.0,51,0.00,,,0.00,Wunderground v.1.15,2013-02-01 18:12:00,
2013-02-01 12:18:00,62.9,42.9,30.31,South,191,8.0,10.0,48,0.00,,,0.00,Wunderground v.1.15,2013-02-01 18:18:00,
2013-02-01 12:24:00,63.3,41.6,30.31,SSW,198,8.0,10.0,45,0.00,,,0.00,Wunderground v.1.15,2013-02-01 18:24:00,
2013-02-01 12:30:00,63.5,41.2,30.30,South,184,9.0,9.0,44,0.00,,,0.00,Wunderground v.1.15,2013-02-01 18:30:00,
2013-02-01 12:36:00,63.6,41.9,30.30,South,186,9.0,14.0,45,0.00,,,0.00,Wunderground v.1.15,2013-02-01 18:36:00,
2013-02-01 12:56:00,63.7,38.9,30.28,SE,136,12.0,15.0,40,0.00,,,0.00,Wunderground v.1.15,2013-02-01 18:56:00,
2013-02-01 13:04:00,64.1,38.6,30.28,SSE,160,12.0,14.0,39,0.00,,,0.00,Wunderground v.1.15,2013-02-01 19:04:00,
2013-02-01 13:10:00,64.1,39.3,30.28,SSE,166,12.0,12.0,40,0.00,,,0.00,Wunderground v.1.15,2013-02-01 19:10:00,
2013-02-01 13:16:00,64.2,40.0,30.28,SSW,200,12.0,19.0,41,0.00,,,0.00,Wunderground v.1.15,2013-02-01 19:16:00,
2013-02-01 13:22:00,63.7,38.3,30.27,SSE,159,14.0,18.0,39,0.00,,,0.00,Wunderground v.1.15,2013-02-01 19:22:00,
2013-02-01 13:28:00,63.9,39.1,30.27,SE,130,14.0,18.0,40,0.00,,,0.00,Wunderground v.1.15,2013-02-01 19:28:00,
2013-02-01 13:34:00,64.1,39.3,30.26,SSE,150,12.0,14.0,40,0.00,,,0.00,Wunderground v.1.15,2013-02-01 19:34:00,
2013-02-01 13:40:00,64.9,39.3,30.26,SE,128,11.0,22.0,39,0.00,,,0.00,Wunderground v.1.15,2013-02-01 19:40:00,
2013-02-01 13:46:00,64.7,37.8,30.26,SSE,149,12.0,22.0,37,0.00,,,0.00,Wunderground v.1.15,2013-02-01 19:46:00,
2013-02-01 13:52:00,64.6,37.7,30.25,South,181,12.0,15.0,37,0.00,,,0.00,Wunderground v.1.15,2013-02-01 19:52:00,
2013-02-01 13:58:00,64.9,37.3,30.25,South,179,13.0,18.0,36,0.00,,,0.00,Wunderground v.1.15,2013-02-01 19:58:00,
2013-02-01 14:04:00,64.9,37.3,30.25,South,187,13.0,13.0,36,0.00,,,0.00,Wunderground v.1.15,2013-02-01 20:04:00,
2013-02-01 14:10:00,65.0,38.8,30.25,South,172,12.0,15.0,38,0.00,,,0.00,Wunderground v.1.15,2013-02-01 20:10:00,
2013-02-01 14:16:00,64.9,38.0,30.24,SSE,162,13.0,15.0,37,0.00,,,0.00,Wunderground v.1.15,2013-02-01 20:16:00,
2013-02-01 14:22:00,65.3,39.0,30.24,South,191,12.0,13.0,38,0.00,,,0.00,Wunderground v.1.15,2013-02-01 20:22:00,
2013-02-01 14:28:00,65.3,37.6,30.24,South,179,12.0,17.0,36,0.00,,,0.00,Wunderground v.1.15,2013-02-01 20:28:00,
2013-02-01 14:34:00,65.3,37.6,30.24,SSW,193,13.0,14.0,36,0.00,,,0.00,Wunderground v.1.15,2013-02-01 20:34:00,
2013-02-01 14:40:00,65.3,36.9,30.24,SE,145,14.0,16.0,35,0.00,,,0.00,Wunderground v.1.15,2013-02-01 20:40:00,
2013-02-01 14:46:00,65.3,36.2,30.24,SSE,160,14.0,17.0,34,0.00,,,0.00,Wunderground v.1.15,2013-02-01 20:46:00,
2013-02-01 14:52:00,65.4,37.0,30.23,SSE,165,14.0,14.0,35,0.00,,,0.00,Wunderground v.1.15,2013-02-01 20:52:00,
2013-02-01 14:58:00,65.9,36.0,30.23,South,180,12.0,19.0,33,0.00,,,0.00,Wunderground v.1.15,2013-02-01 20:58:00,
2013-02-01 15:04:00,65.9,36.0,30.23,SSW,210,12.0,17.0,33,0.00,,,0.00,Wunderground v.1.15,2013-02-01 21:04:00,
2013-02-01 15:10:00,65.6,36.5,30.22,South,179,13.0,13.0,34,0.00,,,0.00,Wunderground v.1.15,2013-02-01 21:10:00,
2013-02-01 15:16:00,65.5,36.4,30.22,SSE,150,14.0,22.0,34,0.00,,,0.00,Wunderground v.1.15,2013-02-01 21:16:00,
2013-02-01 15:22:00,65.5,37.1,30.22,SSE,166,15.0,17.0,35,0.00,,,0.00,Wunderground v.1.15,2013-02-01 21:22:00,
2013-02-01 15:28:00,65.7,36.5,30.22,South,181,12.0,17.0,34,0.00,,,0.00,Wunderground v.1.15,2013-02-01 21:28:00,
2013-02-01 15:34:00,65.8,36.6,30.22,SSE,165,13.0,14.0,34,0.00,,,0.00,Wunderground v.1.15,2013-02-01 21:34:00,
2013-02-01 15:40:00,65.8,35.9,30.22,SE,138,13.0,13.0,33,0.00,,,0.00,Wunderground v.1.15,2013-02-01 21:40:00,
2013-02-01 15:46:00,65.7,35.8,30.22,SSE,165,13.0,16.0,33,0.00,,,0.00,Wunderground v.1.15,2013-02-01 21:46:00,
2013-02-01 15:52:00,65.9,36.7,30.22,South,172,12.0,12.0,34,0.00,,,0.00,Wunderground v.1.15,2013-02-01 21:52:00,
2013-02-01 15:58:00,66.1,36.1,30.22,SW,214,11.0,12.0,33,0.00,,,0.00,Wunderground v.1.15,2013-02-01 21:58:00,
2013-02-01 16:04:00,66.2,35.4,30.22,South,179,12.0,20.0,32,0.00,,,0.00,Wunderground v.1.15,2013-02-01 22:04:00,
2013-02-01 16:10:00,65.9,35.2,30.22,South,169,13.0,14.0,32,0.00,,,0.00,Wunderground v.1.15,2013-02-01 22:10:00,
2013-02-01 16:16:00,65.9,36.0,30.22,SSW,193,12.0,22.0,33,0.00,,,0.00,Wunderground v.1.15,2013-02-01 22:16:00,
2013-02-01 16:22:00,65.5,35.6,30.22,SSE,154,14.0,14.0,33,0.00,,,0.00,Wunderground v.1.15,2013-02-01 22:22:00,
2013-02-01 16:28:00,65.7,35.8,30.21,SSE,151,12.0,14.0,33,0.00,,,0.00,Wunderground v.1.15,2013-02-01 22:28:00,
2013-02-01 16:34:00,65.5,35.6,30.21,SSE,153,10.0,12.0,33,0.00,,,0.00,Wunderground v.1.15,2013-02-01 22:34:00,
2013-02-01 16:40:00,65.5,35.6,30.21,SE,146,11.0,11.0,33,0.00,,,0.00,Wunderground v.1.15,2013-02-01 22:40:00,
2013-02-01 16:46:00,65.7,35.8,30.21,SE,127,10.0,15.0,33,0.00,,,0.00,Wunderground v.1.15,2013-02-01 22:46:00,
2013-02-01 16:52:00,65.6,35.7,30.21,SE,143,11.0,15.0,33,0.00,,,0.00,Wunderground v.1.15,2013-02-01 22:52:00,
2013-02-01 16:58:00,65.5,35.6,30.21,SSW,192,11.0,15.0,33,0.00,,,0.00,Wunderground v.1.15,2013-02-01 22:58:00,
2013-02-01 17:04:00,65.4,35.5,30.20,SSE,150,11.0,15.0,33,0.00,,,0.00,Wunderground v.1.15,2013-02-01 23:04:00,
2013-02-01 17:10:00,65.2,36.1,30.20,SE,138,11.0,11.0,34,0.00,,,0.00,Wunderground v.1.15,2013-02-01 23:10:00,
2013-02-01 17:16:00,65.2,36.1,30.20,SSE,158,9.0,11.0,34,0.00,,,0.00,Wunderground v.1.15,2013-02-01 23:16:00,
2013-02-01 17:22:00,64.9,35.8,30.20,SE,138,11.0,15.0,34,0.00,,,0.00,Wunderground v.1.15,2013-02-01 23:22:00,
2013-02-01 17:28:00,64.6,36.3,30.20,SE,143,11.0,15.0,35,0.00,,,0.00,Wunderground v.1.15,2013-02-01 23:28:00,
2013-02-01 17:34:00,64.3,35.3,30.20,SSE,152,11.0,11.0,34,0.00,,,0.00,Wunderground v.1.15,2013-02-01 23:34:00,
2013-02-01 17:40:00,64.1,35.9,30.20,SSE,150,10.0,11.0,35,0.00,,,0.00,Wunderground v.1.15,2013-02-01 23:40:00,
2013-02-01 17:46:00,63.8,35.6,30.20,SE,139,9.0,11.0,35,0.00,,,0.00,Wunderground v.1.15,2013-02-01 23:46:00,
2013-02-01 17:52:00,63.4,35.2,30.20,SSE,148,8.0,8.0,35,0.00,,,0.00,Wunderground v.1.15,2013-02-01 23:52:00,
2013-02-01 17:58:00,62.8,35.4,30.20,SE,138,7.0,9.0,36,0.00,,,0.00,Wunderground v.1.15,2013-02-01 23:58:00,
2013-02-01 18:04:00,62.1,34.8,30.19,South,187,8.0,8.0,36,0.00,,,0.00,Wunderground v.1.15,2013-02-02 00:04:00,
2013-02-01 18:10:00,61.6,35.1,30.19,SSE,165,8.0,8.0,37,0.00,,,0.00,Wunderground v.1.15,2013-02-02 00:10:00,
2013-02-01 18:16:00,61.0,35.2,30.19,SE,136,7.0,8.0,38,0.00,,,0.00,Wunderground v.1.15,2013-02-02 00:16:00,
2013-02-01 18:22:00,60.5,34.7,30.19,SSE,163,6.0,8.0,38,0.00,,,0.00,Wunderground v.1.15,2013-02-02 00:22:00,
2013-02-01 18:28:00,60.1,35.0,30.19,SSE,162,7.0,11.0,39,0.00,,,0.00,Wunderground v.1.15,2013-02-02 00:28:00,
2013-02-01 18:34:00,59.8,34.8,30.19,SE,127,7.0,8.0,39,0.00,,,0.00,Wunderground v.1.15,2013-02-02 00:34:00,
2013-02-01 18:40:00,59.5,35.1,30.19,SSE,148,7.0,8.0,40,0.00,,,0.00,Wunderground v.1.15,2013-02-02 00:40:00,
2013-02-01 18:46:00,59.2,34.9,30.19,SSE,159,7.0,10.0,40,0.00,,,0.00,Wunderground v.1.15,2013-02-02 00:46:00,
2013-02-01 18:52:00,59.0,34.7,30.19,SE,138,7.0,9.0,40,0.00,,,0.00,Wunderground v.1.15,2013-02-02 00:52:00,
2013-02-01 18:58:00,58.8,35.1,30.19,SSE,166,7.0,9.0,41,0.00,,,0.00,Wunderground v.1.15,2013-02-02 00:58:00,
2013-02-01 19:04:00,58.6,35.0,30.19,SSW,205,7.0,7.0,41,0.00,,,0.00,Wunderground v.1.15,2013-02-02 01:04:00,
2013-02-01 19:10:00,58.5,34.9,30.19,SSE,149,7.0,7.0,41,0.00,,,0.00,Wunderground v.1.15,2013-02-02 01:10:00,
2013-02-01 19:16:00,58.3,34.7,30.19,SSW,198,7.0,10.0,41,0.00,,,0.00,Wunderground v.1.15,2013-02-02 01:16:00,
2013-02-01 19:22:00,58.1,35.1,30.19,South,173,7.0,12.0,42,0.00,,,0.00,Wunderground v.1.15,2013-02-02 01:22:00,
2013-02-01 19:28:00,58.0,35.0,30.19,South,169,8.0,12.0,42,0.00,,,0.00,Wunderground v.1.15,2013-02-02 01:28:00,
2013-02-01 19:34:00,57.9,34.9,30.19,SE,131,8.0,12.0,42,0.00,,,0.00,Wunderground v.1.15,2013-02-02 01:34:00,
2013-02-01 19:40:00,58.1,35.1,30.19,SSE,162,9.0,9.0,42,0.00,,,0.00,Wunderground v.1.15,2013-02-02 01:40:00,
2013-02-01 19:46:00,57.9,35.5,30.19,SSE,163,9.0,9.0,43,0.00,,,0.00,Wunderground v.1.15,2013-02-02 01:46:00,
2013-02-01 19:52:00,57.8,35.4,30.20,South,169,8.0,9.0,43,0.00,,,0.00,Wunderground v.1.15,2013-02-02 01:52:00,
2013-02-01 19:58:00,57.3,35.6,30.20,SSE,148,8.0,9.0,44,0.00,,,0.00,Wunderground v.1.15,2013-02-02 01:58:00,
2013-02-01 20:04:00,57.0,35.9,30.20,SE,145,8.0,11.0,45,0.00,,,0.00,Wunderground v.1.15,2013-02-02 02:04:00,
2013-02-01 20:10:00,56.7,35.6,30.20,SSE,148,9.0,9.0,45,0.00,,,0.00,Wunderground v.1.15,2013-02-02 02:10:00,
2013-02-01 20:16:00,56.5,35.4,30.20,SE,144,9.0,12.0,45,0.00,,,0.00,Wunderground v.1.15,2013-02-02 02:16:00,
2013-02-01 20:22:00,56.5,35.4,30.20,SSE,163,10.0,13.0,45,0.00,,,0.00,Wunderground v.1.15,2013-02-02 02:22:00,
2013-02-01 20:28:00,56.4,35.3,30.21,SE,142,10.0,13.0,45,0.00,,,0.00,Wunderground v.1.15,2013-02-02 02:28:00,
2013-02-01 20:34:00,56.4,35.3,30.21,SSE,167,11.0,13.0,45,0.00,,,0.00,Wunderground v.1.15,2013-02-02 02:34:00,
2013-02-01 20:40:00,56.2,35.7,30.21,SSE,160,10.0,10.0,46,0.00,,,0.00,Wunderground v.1.15,2013-02-02 02:40:00,
2013-02-01 20:46:00,56.0,35.5,30.22,SSE,153,10.0,14.0,46,0.00,,,0.00,Wunderground v.1.15,2013-02-02 02:46:00,
2013-02-01 20:52:00,55.8,35.3,30.22,SSE,156,10.0,12.0,46,0.00,,,0.00,Wunderground v.1.15,2013-02-02 02:52:00,
2013-02-01 21:04:00,55.0,35.7,30.22,SE,131,9.0,9.0,48,0.00,,,0.00,Wunderground v.1.15,2013-02-02 03:04:00,
2013-02-01 21:10:00,54.7,35.4,30.22,SSE,150,9.0,9.0,48,0.00,,,0.00,Wunderground v.1.15,2013-02-02 03:10:00,
2013-02-01 21:16:00,54.4,35.6,30.22,SE,141,9.0,11.0,49,0.00,,,0.00,Wunderground v.1.15,2013-02-02 03:16:00,
2013-02-01 21:22:00,54.0,35.3,30.22,SE,132,9.0,12.0,49,0.00,,,0.00,Wunderground v.1.15,2013-02-02 03:22:00,
2013-02-01 21:28:00,53.7,35.5,30.23,SSE,148,9.0,12.0,50,0.00,,,0.00,Wunderground v.1.15,2013-02-02 03:28:00,
2013-02-01 21:46:00,53.2,35.5,30.22,ESE,117,8.0,12.0,51,0.00,,,0.00,Wunderground v.1.15,2013-02-02 03:46:00,
2013-02-01 21:52:00,53.1,35.4,30.23,SSE,162,9.0,11.0,51,0.00,,,0.00,Wunderground v.1.15,2013-02-02 03:52:00,
2013-02-01 22:00:00,52.9,35.7,30.22,SE,139,10.0,10.0,52,0.00,,,0.00,Wunderground v.1.15,2013-02-02 04:00:00,
2013-02-01 22:06:00,52.8,35.6,30.22,South,173,11.0,11.0,52,0.00,,,0.00,Wunderground v.1.15,2013-02-02 04:06:00,
2013-02-01 22:12:00,52.5,35.8,30.23,SSW,193,10.0,11.0,53,0.00,,,0.00,Wunderground v.1.15,2013-02-02 04:12:00,
2013-02-01 22:18:00,52.3,36.1,30.23,SSE,153,9.0,11.0,54,0.00,,,0.00,Wunderground v.1.15,2013-02-02 04:18:00,
2013-02-01 22:24:00,52.2,36.5,30.23,SE,145,10.0,12.0,55,0.00,,,0.00,Wunderground v.1.15,2013-02-02 04:24:00,
2013-02-01 22:30:00,52.1,37.3,30.23,SSE,150,10.0,12.0,57,0.00,,,0.00,Wunderground v.1.15,2013-02-02 04:30:00,
2013-02-01 22:36:00,52.0,37.7,30.23,South,186,10.0,12.0,58,0.00,,,0.00,Wunderground v.1.15,2013-02-02 04:36:00,
2013-02-01 22:42:00,51.8,37.9,30.22,SE,125,11.0,12.0,59,0.00,,,0.00,Wunderground v.1.15,2013-02-02 04:42:00,
2013-02-01 22:48:00,51.5,38.1,30.22,SE,144,10.0,12.0,60,0.00,,,0.00,Wunderground v.1.15,2013-02-02 04:48:00,
2013-02-01 22:54:00,51.2,38.2,30.22,SE,143,10.0,10.0,61,0.00,,,0.00,Wunderground v.1.15,2013-02-02 04:54:00,
2013-02-01 23:00:00,51.0,38.4,30.22,SE,141,10.0,10.0,62,0.00,,,0.00,Wunderground v.1.15,2013-02-02 05:00:00,
2013-02-01 23:02:00,50.9,38.3,30.22,SE,138,10.0,10.0,62,0.00,,,0.00,Wunderground v.1.15,2013-02-02 05:02:00,
2013-02-01 23:04:00,50.8,38.7,30.22,SSE,166,10.0,13.0,63,0.00,,,0.00,Wunderground v.1.15,2013-02-02 05:04:00,
2013-02-01 23:10:00,50.6,38.5,30.22,SSE,162,10.0,14.0,63,0.00,,,0.00,Wunderground v.1.15,2013-02-02 05:10:00,
2013-02-01 23:12:00,50.6,38.5,30.22,SSE,158,10.0,14.0,63,0.00,,,0.00,Wunderground v.1.15,2013-02-02 05:12:00,
2013-02-01 23:18:00,50.4,38.7,30.22,South,181,11.0,14.0,64,0.00,,,0.00,Wunderground v.1.15,2013-02-02 05:18:00,
2013-02-01 23:24:00,50.4,39.1,30.22,ESE,118,11.0,13.0,65,0.00,,,0.00,Wunderground v.1.15,2013-02-02 05:24:00,
2013-02-01 23:30:00,50.2,38.9,30.22,SSE,148,11.0,12.0,65,0.00,,,0.00,Wunderground v.1.15,2013-02-02 05:30:00,
2013-02-01 23:36:00,50.2,39.3,30.21,SE,134,12.0,15.0,66,0.00,,,0.00,Wunderground v.1.15,2013-02-02 05:36:00,
2013-02-01 23:42:00,50.1,39.6,30.21,SSE,160,12.0,12.0,67,0.00,,,0.00,Wunderground v.1.15,2013-02-02 05:42:00,
2013-02-01 23:48:00,50.0,39.8,30.21,SSE,162,11.0,12.0,68,0.00,,,0.00,Wunderground v.1.15,2013-02-02 05:48:00,
2013-02-01 23:54:00,49.9,40.1,30.20,South,169,12.0,12.0,69,0.00,,,0.00,Wunderground v.1.15,2013-02-02 05:54:00,